Portada
METAR-TAF:

METAR-TAF

Aeropuertos :

Gibraltar, Gibraltar

Aeropuerto de Gibraltar

latitud: 36-09N, longitud: 005-21W, altitud: 5 m

Observación

El informe se hizo hace 1 hora y 5 minutos, a las 13:50 UTC
Viento 6 kt del este
Temperatura 19°C
Humedad 73%
Presión 1020 hPa
Visibilidad 10 km o más
sin nubes por debajo de 1500 m y sin presencia de cumulonimbus.

METAR: LXGB 241350Z 10006KT CAVOK 19/14 Q1020 NOSIG

Hora: 15:55 (14:55 UTC)

Pronóstico

El informe se hizo hace 1 hora y 11 minutos, a las 13:44 UTC
Pronóstico válido del 24 a las 15 UTC al 24 a las 22 UTC
Viento 3 kt del este
Visibilidad 10 km o más
sin nubes por debajo de 1500 m y sin presencia de cumulonimbus.
Probabilidad 30%
del 24 a las 18 UTC al 24 a las 22 UTC
Visibilidad: 7000 m
calima

TAF: LXGB 241344Z 2415/2422 09003KT CAVOK PROB30 2418/2422 7000 HZ

Observaciones y pronósticos meteorológicos de más de 4000 aeropuertos (mensajes METAR y TAF).

Los puntos amarillos y rojos representan las estaciones disponibles.

Ponga el ratón en el punto deseado para ver el nombre de la estación.

Haga clic para ver las observaciones y los pronósticos meteorológicos.

Para cambiar el mapa : haga clic en los botones verdes con una cruz de color negro para hacer un zoom, en el botón verde con un guión para alejar o en las flechas verdes para mapas adyacentes.


METAR-TAF: